Terminal Aerodrome Forecast
Issued by NWS

Home | Current Version | Previous Version | Graphics & Text | Print | Product List | Glossary On
Versions: 1 2 3 4 5 6 7 8 9 10 11 12 13 14 15 16 17 18 19 20 21 22 23 24 25 26
321
FTUS43 KLOT 010311 AAB
TAFMDW
TAF AMD
KMDW 010311Z 0103/0124 21007KT P6SM -RA VCTS SCT015CB BKN050
      TEMPO 0103/0105 VRB15G25KT 3SM TSRA BR BKN020CB
     FM010600 24005KT P6SM SCT012 OVC040
     FM011100 29009KT P6SM VCSH SCT003 OVC008
     FM011600 29013G20KT P6SM VCSH OVC015
     FM012000 31018G27KT 5SM -RASN BR BKN015=

USA.gov is the U.S. government's official web portal to all federal, state and local government web resources and services.